Time;durP1;ratioP1;P1;durP2;ratioP2;P2;SDS_P1;SDS_P2;PMS_P1;PMS_P2;Temp;Humidity;BMP_temperature;BMP_pressure;BME280_temperature;BME280_humidity;BME280_pressure;Samples;Min_cycle;Max_cycle;Signal;HPM_P1;HPM_P2
2022/09/09 00:00:16;;;;;;;1.55;0.73;;;17.20;99.90;;;;;;5058639;28;20089;-83
2022/09/09 00:03:10;;;;;;;1.45;0.80;;;17.20;99.90;;;;;;5040947;28;20397;-84
2022/09/09 00:05:45;;;;;;;0.90;0.50;;;17.20;99.90;;;;;;5047831;28;20097;-84
2022/09/09 00:08:26;;;;;;;1.63;0.65;;;17.10;99.90;;;;;;5058344;28;20397;-86
2022/09/09 00:11:01;;;;;;;1.80;0.70;;;17.20;99.90;;;;;;5024728;28;20025;-82
2022/09/09 00:14:08;;;;;;;1.38;0.65;;;17.20;99.90;;;;;;5059182;28;20429;-86
2022/09/09 00:16:40;;;;;;;1.27;0.57;;;17.30;99.90;;;;;;4996753;28;20371;-83
2022/09/09 00:19:17;;;;;;;1.48;0.70;;;17.20;99.90;;;;;;5035444;28;20471;-83
2022/09/09 00:22:03;;;;;;;1.60;0.70;;;17.20;99.90;;;;;;5024669;28;20025;-83
2022/09/09 00:24:55;;;;;;;1.00;0.75;;;17.20;99.90;;;;;;5068547;28;20044;-82
2022/09/09 00:27:53;;;;;;;1.42;0.70;;;17.20;99.90;;;;;;5046506;28;20037;-85
2022/09/09 00:30:22;;;;;;;0.68;0.60;;;17.20;99.90;;;;;;5076175;28;20060;-86
2022/09/09 00:33:14;;;;;;;2.03;0.40;;;17.20;99.90;;;;;;5061630;28;20036;-85
2022/09/09 00:35:58;;;;;;;2.40;0.50;;;17.20;99.90;;;;;;5058260;28;20128;-83
2022/09/09 00:38:42;;;;;;;1.90;0.77;;;17.20;99.90;;;;;;5057734;28;20031;-84
2022/09/09 00:41:34;;;;;;;1.60;0.77;;;17.10;99.90;;;;;;5040855;28;20143;-83
2022/09/09 00:44:35;;;;;;;1.30;0.77;;;17.10;99.90;;;;;;5054968;28;20060;-84
2022/09/09 00:47:22;;;;;;;1.40;0.68;;;17.10;99.90;;;;;;4992912;28;20044;-84
2022/09/09 00:50:01;;;;;;;0.43;0.43;;;17.10;99.90;;;;;;5058603;28;20056;-84
2022/09/09 00:52:46;;;;;;;1.75;0.60;;;17.10;99.90;;;;;;5059998;28;20112;-84
2022/09/09 00:55:25;;;;;;;0.63;0.63;;;17.00;99.90;;;;;;5041361;28;20059;-83
2022/09/09 00:57:53;;;;;;;5.10;0.65;;;17.00;99.90;;;;;;5040929;28;20670;-84
2022/09/09 01:00:29;;;;;;;0.60;0.60;;;16.90;99.90;;;;;;5041423;28;20037;-84
2022/09/09 01:03:17;;;;;;;0.88;0.70;;;16.80;99.90;;;;;;5046371;28;20097;-83
2022/09/09 01:06:01;;;;;;;1.13;0.70;;;16.70;99.90;;;;;;5063588;28;20025;-83
2022/09/09 01:08:59;;;;;;;1.70;0.73;;;16.70;99.90;;;;;;5042577;28;20065;-83
2022/09/09 01:12:01;;;;;;;0.75;0.52;;;16.70;99.90;;;;;;5041759;28;20171;-85
2022/09/09 01:14:44;;;;;;;2.08;0.60;;;16.80;99.90;;;;;;5041303;28;20035;-83
2022/09/09 01:17:36;;;;;;;2.17;0.43;;;16.80;99.90;;;;;;5041187;28;20056;-84
2022/09/09 01:20:18;;;;;;;0.85;0.50;;;16.80;99.90;;;;;;5072097;28;20104;-83
2022/09/09 01:23:05;;;;;;;0.40;0.40;;;16.70;99.90;;;;;;5054201;28;20063;-84
2022/09/09 01:25:43;;;;;;;2.30;0.80;;;16.70;99.90;;;;;;5035956;28;20032;-85
2022/09/09 01:28:22;;;;;;;1.30;0.80;;;16.60;99.90;;;;;;5027785;28;20028;-84
2022/09/09 01:30:49;;;;;;;1.60;0.70;;;16.60;99.90;;;;;;5041854;28;20024;-85
2022/09/09 01:33:18;;;;;;;2.05;0.80;;;16.50;99.90;;;;;;5041646;28;20025;-83
2022/09/09 01:36:02;;;;;;;0.88;0.70;;;16.50;99.90;;;;;;5061103;28;20028;-83
2022/09/09 01:38:34;;;;;;;2.05;0.68;;;16.40;99.90;;;;;;5046302;28;20236;-87
2022/09/09 01:41:01;;;;;;;1.58;0.57;;;16.40;99.90;;;;;;5051032;28;20041;-83
2022/09/09 01:43:37;;;;;;;4.72;0.60;;;16.40;99.90;;;;;;5030936;28;20033;-84
2022/09/09 01:46:03;;;;;;;1.85;0.88;;;16.40;99.90;;;;;;5058989;28;20033;-84
2022/09/09 01:48:31;;;;;;;0.55;0.47;;;16.40;99.90;;;;;;5053756;28;20457;-81
2022/09/09 01:51:02;;;;;;;1.95;0.60;;;16.40;99.90;;;;;;5054041;28;20032;-83
2022/09/09 01:53:29;;;;;;;4.32;0.60;;;16.40;99.90;;;;;;5054826;28;20017;-88
2022/09/09 01:56:00;;;;;;;0.68;0.60;;;16.40;99.90;;;;;;5049739;28;20035;-82
2022/09/09 01:58:47;;;;;;;0.70;0.60;;;16.40;99.90;;;;;;5058416;28;20093;-84
2022/09/09 02:01:20;;;;;;;2.70;0.80;;;16.30;99.90;;;;;;5040086;28;20029;-83
2022/09/09 02:03:55;;;;;;;2.17;0.60;;;16.40;99.90;;;;;;5040478;28;20029;-86
2022/09/09 02:06:33;;;;;;;0.40;0.40;;;16.30;99.90;;;;;;5045623;28;20107;-85
2022/09/09 02:09:12;;;;;;;0.55;0.55;;;16.30;99.90;;;;;;5064792;28;20086;-86
2022/09/09 02:11:41;;;;;;;0.65;0.63;;;16.30;99.90;;;;;;5037792;28;20032;-87
2022/09/09 02:14:30;;;;;;;3.47;0.60;;;16.40;99.90;;;;;;5059739;28;20021;-87
2022/09/09 02:17:06;;;;;;;3.67;0.60;;;16.30;99.90;;;;;;5077527;28;20037;-87
2022/09/09 02:19:59;;;;;;;0.60;0.60;;;16.30;99.90;;;;;;5060190;28;20043;-86
2022/09/09 02:22:42;;;;;;;1.25;0.93;;;16.20;99.90;;;;;;5042040;28;20045;-84
2022/09/09 02:25:12;;;;;;;0.88;0.60;;;16.20;99.90;;;;;;5042527;28;20029;-83
2022/09/09 02:27:40;;;;;;;0.60;0.60;;;16.20;99.90;;;;;;5039815;28;20035;-83
2022/09/09 02:30:07;;;;;;;1.20;0.80;;;16.20;99.90;;;;;;5038867;28;20021;-83
2022/09/09 02:32:43;;;;;;;4.30;0.88;;;16.10;99.90;;;;;;5039659;28;20063;-84
2022/09/09 02:35:14;;;;;;;6.07;0.90;;;16.10;99.90;;;;;;5039311;28;20071;-84
2022/09/09 02:37:43;;;;;;;1.52;0.80;;;16.10;99.90;;;;;;5038326;28;20036;-83
2022/09/09 02:40:12;;;;;;;2.03;0.85;;;16.00;99.90;;;;;;5038795;28;20018;-83
2022/09/09 02:42:47;;;;;;;1.42;0.93;;;16.10;99.90;;;;;;5024467;28;20520;-83
2022/09/09 02:45:18;;;;;;;6.15;0.90;;;16.00;99.90;;;;;;5027261;28;20025;-83
2022/09/09 02:48:00;;;;;;;1.38;0.80;;;16.00;99.90;;;;;;5020243;28;20054;-83
2022/09/09 02:51:06;;;;;;;0.55;0.55;;;16.00;99.90;;;;;;5016245;28;20030;-85
2022/09/09 02:53:59;;;;;;;2.80;0.80;;;15.90;99.90;;;;;;5008119;28;20030;-88
2022/09/09 02:56:30;;;;;;;6.97;0.93;;;15.90;99.90;;;;;;5041937;28;20488;-83
2022/09/09 02:58:57;;;;;;;2.85;0.85;;;15.90;99.90;;;;;;5037959;28;20029;-84
2022/09/09 03:01:24;;;;;;;2.30;1.10;;;15.80;99.90;;;;;;5036458;28;20037;-82
2022/09/09 03:03:49;;;;;;;1.25;0.75;;;15.80;99.90;;;;;;5053206;28;20151;-84
2022/09/09 03:06:17;;;;;;;1.88;1.05;;;15.80;99.90;;;;;;5037205;28;20027;-84
2022/09/09 03:08:47;;;;;;;0.90;0.70;;;15.80;99.90;;;;;;5029754;28;20029;-84
2022/09/09 03:11:15;;;;;;;1.85;0.95;;;15.80;99.90;;;;;;5048824;28;20492;-83
2022/09/09 03:13:42;;;;;;;1.60;0.90;;;15.80;99.90;;;;;;5050276;28;20762;-84
2022/09/09 03:16:09;;;;;;;2.10;1.05;;;15.80;99.90;;;;;;5028607;28;20407;-84
2022/09/09 03:18:41;;;;;;;1.95;0.90;;;15.70;99.90;;;;;;5049565;28;20016;-84
2022/09/09 03:21:08;;;;;;;2.08;0.93;;;15.70;99.90;;;;;;5069521;28;20048;-83
2022/09/09 03:23:35;;;;;;;2.38;1.13;;;15.70;99.90;;;;;;5042188;28;20052;-83
2022/09/09 03:26:02;;;;;;;1.25;1.15;;;15.60;99.90;;;;;;5041642;28;20029;-84
2022/09/09 03:28:39;;;;;;;2.67;1.30;;;15.60;99.90;;;;;;5041410;28;20045;-84
2022/09/09 03:31:06;;;;;;;4.68;1.73;;;15.60;99.90;;;;;;5042144;28;20447;-85
2022/09/09 03:33:41;;;;;;;4.20;1.80;;;15.60;99.90;;;;;;5048482;28;20096;-83
2022/09/09 03:36:10;;;;;;;4.30;1.67;;;15.60;99.90;;;;;;5043428;28;20036;-84
2022/09/09 03:38:36;;;;;;;7.35;1.70;;;15.60;99.90;;;;;;5061515;28;20025;-85
2022/09/09 03:41:02;;;;;;;3.60;1.80;;;15.60;99.90;;;;;;5044545;28;20028;-83
2022/09/09 03:43:29;;;;;;;3.05;2.15;;;15.60;99.90;;;;;;5043397;28;20035;-85
2022/09/09 03:45:58;;;;;;;2.67;1.65;;;15.60;99.90;;;;;;5043309;28;20029;-84
2022/09/09 03:48:27;;;;;;;4.22;1.80;;;15.50;99.90;;;;;;5031412;28;20481;-81
2022/09/09 03:50:55;;;;;;;5.45;1.63;;;15.40;99.90;;;;;;5040087;28;20120;-84
2022/09/09 03:53:24;;;;;;;6.82;1.77;;;15.50;99.90;;;;;;5028894;28;20028;-85
2022/09/09 03:55:54;;;;;;;7.60;3.10;;;15.40;99.90;;;;;;5029898;28;20025;-84
2022/09/09 03:58:23;;;;;;;5.95;2.15;;;15.40;99.90;;;;;;5047487;28;20075;-83
2022/09/09 04:00:59;;;;;;;5.85;2.03;;;15.30;99.90;;;;;;5031128;28;20480;-84
2022/09/09 04:03:27;;;;;;;3.08;1.90;;;15.20;99.90;;;;;;5064038;28;20025;-85
2022/09/09 04:05:54;;;;;;;6.82;2.40;;;15.20;99.90;;;;;;5067112;28;20021;-83
2022/09/09 04:08:22;;;;;;;8.00;1.90;;;15.20;99.90;;;;;;5049185;28;20021;-87
2022/09/09 04:10:49;;;;;;;4.30;1.80;;;15.10;99.90;;;;;;5040112;28;20048;-85
2022/09/09 04:13:17;;;;;;;4.43;1.92;;;15.10;99.90;;;;;;5053932;28;20407;-81
2022/09/09 04:15:49;;;;;;;3.47;2.10;;;15.10;99.90;;;;;;5033314;28;20061;-85
2022/09/09 04:18:15;;;;;;;4.93;2.00;;;15.00;99.90;;;;;;5047581;28;20198;-81
2022/09/09 04:20:43;;;;;;;8.55;1.90;;;15.00;99.90;;;;;;5047014;28;20025;-83
2022/09/09 04:23:09;;;;;;;5.97;1.80;;;15.00;99.90;;;;;;5056012;28;20043;-81
2022/09/09 04:25:35;;;;;;;5.70;2.10;;;14.90;99.90;;;;;;5058577;28;20170;-81
2022/09/09 04:28:02;;;;;;;5.82;2.30;;;14.90;99.90;;;;;;5058410;28;20037;-82
2022/09/09 04:30:28;;;;;;;5.93;2.03;;;14.90;99.90;;;;;;5058895;28;20096;-82
2022/09/09 04:32:54;;;;;;;6.03;2.15;;;14.90;99.90;;;;;;5040477;28;20037;-82
2022/09/09 04:35:20;;;;;;;4.97;2.00;;;14.90;99.90;;;;;;5050904;28;20073;-83
2022/09/09 04:37:47;;;;;;;5.45;2.03;;;14.90;99.90;;;;;;5057359;28;20048;-81
2022/09/09 04:40:13;;;;;;;3.85;2.00;;;14.90;99.90;;;;;;5046665;28;20021;-82
2022/09/09 04:42:43;;;;;;;3.05;2.05;;;14.90;99.90;;;;;;5019556;28;20036;-83
2022/09/09 04:45:13;;;;;;;5.13;2.22;;;14.90;99.90;;;;;;5007859;28;20030;-82
2022/09/09 04:47:41;;;;;;;11.27;2.30;;;14.90;99.90;;;;;;5023151;28;20059;-83
2022/09/09 04:50:08;;;;;;;4.20;2.20;;;14.90;99.90;;;;;;5036449;28;20025;-83
2022/09/09 04:52:37;;;;;;;3.50;2.13;;;14.90;99.90;;;;;;5026485;28;20021;-81
2022/09/09 04:55:03;;;;;;;5.13;2.30;;;14.90;99.90;;;;;;5044311;28;20025;-81
2022/09/09 04:57:31;;;;;;;6.68;1.80;;;14.90;99.90;;;;;;5064322;28;20074;-83
2022/09/09 04:59:58;;;;;;;7.07;2.10;;;14.90;99.90;;;;;;5069018;28;20025;-82
2022/09/09 05:02:24;;;;;;;4.18;2.25;;;14.90;99.90;;;;;;5048340;28;20059;-81
2022/09/09 05:04:50;;;;;;;5.05;2.38;;;14.90;99.90;;;;;;5046063;28;20017;-81
2022/09/09 05:07:16;;;;;;;6.82;2.55;;;14.90;99.90;;;;;;5061313;28;20487;-82
2022/09/09 05:09:42;;;;;;;11.60;2.78;;;15.00;99.90;;;;;;5061751;28;20469;-82
2022/09/09 05:12:08;;;;;;;7.03;2.50;;;15.00;99.90;;;;;;5050934;28;20066;-83
2022/09/09 05:14:37;;;;;;;7.00;2.90;;;15.00;99.90;;;;;;5075892;23;20096;-80
2022/09/09 05:17:04;;;;;;;6.60;2.40;;;15.00;99.90;;;;;;5039936;28;20451;-79
2022/09/09 05:19:30;;;;;;;5.72;2.42;;;15.00;99.90;;;;;;5041280;28;20029;-80
2022/09/09 05:21:56;;;;;;;8.32;3.53;;;15.10;99.90;;;;;;5024602;28;20025;-79
2022/09/09 05:24:33;;;;;;;5.32;2.75;;;15.10;99.90;;;;;;5030085;28;20111;-79
2022/09/09 05:27:01;;;;;;;3.03;2.33;;;15.10;99.90;;;;;;5052061;28;20021;-80
2022/09/09 05:29:28;;;;;;;10.40;3.17;;;15.10;99.90;;;;;;5057520;28;20108;-80
2022/09/09 05:31:55;;;;;;;11.48;2.78;;;15.10;99.90;;;;;;5039073;28;20032;-80
2022/09/09 05:34:21;;;;;;;5.18;2.88;;;15.20;99.90;;;;;;5041002;28;20555;-80
2022/09/09 05:36:47;;;;;;;4.03;2.38;;;15.20;99.90;;;;;;5039052;28;20033;-79
2022/09/09 05:39:14;;;;;;;5.30;2.85;;;15.30;99.90;;;;;;5046794;28;20444;-80
2022/09/09 05:41:40;;;;;;;5.97;2.67;;;15.30;99.90;;;;;;5066577;28;20029;-81
2022/09/09 05:44:06;;;;;;;5.05;2.50;;;15.50;99.90;;;;;;5049835;28;20036;-80
2022/09/09 05:46:37;;;;;;;5.07;2.55;;;15.60;99.90;;;;;;5048093;28;20060;-80
2022/09/09 05:49:03;;;;;;;6.20;2.78;;;15.70;99.90;;;;;;5041180;28;20043;-82
2022/09/09 05:51:32;;;;;;;6.55;2.50;;;15.90;99.90;;;;;;5042023;28;20055;-80
2022/09/09 05:54:02;;;;;;;5.60;2.63;;;15.90;99.90;;;;;;5027038;28;20119;-79
2022/09/09 05:56:32;;;;;;;7.60;3.00;;;16.00;99.90;;;;;;5038131;28;20032;-80
2022/09/09 05:58:59;;;;;;;3.70;2.47;;;16.10;99.90;;;;;;5036648;28;20113;-80
2022/09/09 06:01:30;;;;;;;6.57;2.65;;;16.20;99.90;;;;;;5021422;28;20040;-79
2022/09/09 06:03:56;;;;;;;8.60;3.03;;;16.30;99.90;;;;;;5041877;28;20027;-80
2022/09/09 06:06:25;;;;;;;5.18;2.95;;;16.30;99.90;;;;;;5045402;28;20021;-80
2022/09/09 06:08:57;;;;;;;5.45;2.90;;;16.30;99.90;;;;;;5045786;28;20032;-82
2022/09/09 06:11:27;;;;;;;6.85;2.70;;;16.30;99.90;;;;;;5039996;28;20029;-80
2022/09/09 06:13:54;;;;;;;6.00;2.55;;;16.40;99.90;;;;;;5043266;28;20028;-81
2022/09/09 06:16:26;;;;;;;8.75;2.65;;;16.40;99.90;;;;;;5053442;28;20025;-80
2022/09/09 06:18:56;;;;;;;10.50;3.05;;;16.50;99.90;;;;;;5054082;28;20029;-81
2022/09/09 06:21:27;;;;;;;6.65;2.83;;;16.50;99.90;;;;;;5049414;28;20035;-80
2022/09/09 06:23:53;;;;;;;8.73;2.90;;;16.60;99.90;;;;;;5062155;28;20033;-80
2022/09/09 06:26:25;;;;;;;7.38;3.28;;;16.80;99.90;;;;;;5067164;28;20024;-80
2022/09/09 06:28:53;;;;;;;6.80;3.38;;;17.00;99.90;;;;;;5066243;28;20031;-80
2022/09/09 06:31:25;;;;;;;11.43;3.20;;;17.30;99.90;;;;;;5064091;28;20070;-82
2022/09/09 06:33:52;;;;;;;10.10;2.95;;;17.40;99.90;;;;;;5062620;28;20025;-80
2022/09/09 06:36:24;;;;;;;6.78;2.85;;;17.40;99.90;;;;;;5068561;28;20133;-80
2022/09/09 06:38:50;;;;;;;9.48;2.72;;;17.60;99.90;;;;;;5071632;28;20020;-81
2022/09/09 06:41:20;;;;;;;6.32;2.85;;;17.90;99.90;;;;;;5070016;28;20016;-80
2022/09/09 06:43:46;;;;;;;8.00;4.20;;;18.20;99.90;;;;;;5067574;28;20160;-82
2022/09/09 06:46:21;;;;;;;5.63;3.40;;;18.40;99.90;;;;;;5066639;28;20058;-78
2022/09/09 06:48:48;;;;;;;8.55;3.55;;;18.70;99.90;;;;;;5068732;28;20029;-81
2022/09/09 06:51:23;;;;;;;11.07;3.10;;;18.90;99.90;;;;;;5089594;28;20464;-81
2022/09/09 06:53:58;;;;;;;8.30;3.38;;;19.00;99.90;;;;;;5070988;28;20092;-80
2022/09/09 06:56:27;;;;;;;12.27;2.90;;;19.00;99.90;;;;;;5086775;28;20055;-80
2022/09/09 06:58:56;;;;;;;4.43;2.78;;;19.10;99.90;;;;;;5065604;28;20021;-81
2022/09/09 07:01:27;;;;;;;6.90;2.67;;;19.20;99.90;;;;;;5043949;28;20029;-80
2022/09/09 07:03:58;;;;;;;5.47;2.40;;;19.10;99.90;;;;;;5047483;28;20063;-80
2022/09/09 07:06:28;;;;;;;5.13;2.40;;;19.10;99.90;;;;;;5048635;28;20130;-79
2022/09/09 07:08:57;;;;;;;5.80;2.70;;;19.30;99.90;;;;;;5048503;28;20032;-81
2022/09/09 07:11:31;;;;;;;6.57;2.45;;;19.50;99.90;;;;;;5046441;28;20043;-80
2022/09/09 07:13:59;;;;;;;8.13;2.80;;;19.70;99.90;;;;;;5057481;28;20090;-81
2022/09/09 07:16:27;;;;;;;5.65;2.60;;;19.80;99.90;;;;;;5065134;28;20480;-80
2022/09/09 07:18:58;;;;;;;6.82;2.58;;;19.90;99.90;;;;;;5044897;28;20025;-79
2022/09/09 07:21:29;;;;;;;3.75;2.40;;;19.80;99.90;;;;;;5045049;28;20025;-81
2022/09/09 07:23:55;;;;;;;7.13;2.53;;;19.80;99.90;;;;;;5062142;28;20056;-81
2022/09/09 07:26:25;;;;;;;8.55;2.60;;;19.90;99.90;;;;;;5071610;28;20174;-79
2022/09/09 07:28:53;;;;;;;5.57;2.60;;;19.90;99.90;;;;;;5037434;28;20059;-80
2022/09/09 07:31:25;;;;;;;7.22;3.22;;;19.90;99.90;;;;;;5061980;28;20024;-80
2022/09/09 07:33:52;;;;;;;7.07;3.13;;;19.90;99.90;;;;;;5064013;28;20028;-79
2022/09/09 07:36:25;;;;;;;3.72;2.47;;;19.90;99.90;;;;;;5051439;28;20025;-80
2022/09/09 07:38:59;;;;;;;7.97;3.33;;;19.80;99.90;;;;;;5050081;28;20053;-80
2022/09/09 07:41:33;;;;;;;5.32;2.40;;;19.70;99.90;;;;;;5035646;28;20029;-78
2022/09/09 07:44:07;;;;;;;3.50;2.40;;;19.70;99.90;;;;;;5052770;28;20029;-80
2022/09/09 07:46:35;;;;;;;4.25;2.38;;;19.70;99.90;;;;;;5052382;28;20032;-79
2022/09/09 07:49:02;;;;;;;4.28;2.45;;;19.70;99.90;;;;;;5049751;28;20060;-80
2022/09/09 07:51:36;;;;;;;5.93;2.25;;;19.80;99.90;;;;;;5053183;28;20036;-82
2022/09/09 07:54:05;;;;;;;3.78;2.20;;;19.80;99.90;;;;;;5051760;28;20131;-82
2022/09/09 07:56:32;;;;;;;7.78;2.55;;;20.00;99.90;;;;;;5063095;28;20058;-81
2022/09/09 07:58:59;;;;;;;11.18;2.78;;;20.10;99.90;;;;;;5081334;28;20701;-81
2022/09/09 08:01:29;;;;;;;4.18;2.50;;;20.00;99.90;;;;;;5081536;28;20020;-78
2022/09/09 08:03:56;;;;;;;4.97;2.67;;;20.10;99.90;;;;;;5063994;28;20532;-80
2022/09/09 08:06:22;;;;;;;14.95;3.15;;;20.20;99.90;;;;;;5046155;28;20067;-78
2022/09/09 08:08:51;;;;;;;5.60;2.47;;;20.40;99.90;;;;;;5068063;28;20029;-79
2022/09/09 08:11:17;;;;;;;5.70;2.88;;;20.50;99.90;;;;;;5062576;28;20025;-80
2022/09/09 08:13:43;;;;;;;6.78;2.65;;;20.70;99.90;;;;;;5063922;28;20039;-79
2022/09/09 08:16:15;;;;;;;5.60;2.58;;;20.80;99.90;;;;;;5061584;28;20036;-81
2022/09/09 08:18:42;;;;;;;8.20;2.88;;;21.00;99.90;;;;;;5059925;28;20021;-80
2022/09/09 08:21:13;;;;;;;7.18;2.60;;;21.10;99.90;;;;;;5078031;28;20020;-80
2022/09/09 08:23:41;;;;;;;6.05;2.67;;;21.20;99.90;;;;;;5060028;28;20454;-79
2022/09/09 08:26:14;;;;;;;5.15;2.42;;;21.40;99.90;;;;;;5053798;28;20135;-80
2022/09/09 08:28:41;;;;;;;6.30;2.60;;;21.70;99.90;;;;;;5065574;28;20040;-80
2022/09/09 08:31:12;;;;;;;3.83;2.58;;;21.90;99.90;;;;;;5059531;28;20396;-81
2022/09/09 08:33:39;;;;;;;6.55;2.38;;;22.00;99.90;;;;;;5060175;28;20028;-79
2022/09/09 08:36:07;;;;;;;7.03;2.80;;;22.00;99.90;;;;;;5062385;28;20028;-81
2022/09/09 08:38:33;;;;;;;8.63;2.45;;;22.00;99.90;;;;;;5041250;28;20036;-81
2022/09/09 08:41:16;;;;;;;5.95;2.20;;;22.00;99.90;;;;;;5059218;28;20013;-81
2022/09/09 08:43:46;;;;;;;4.47;2.47;;;22.30;99.90;;;;;;5071041;28;20044;-80
2022/09/09 08:46:19;;;;;;;8.85;2.25;;;22.70;99.90;;;;;;5069478;28;20048;-80
2022/09/09 08:48:59;;;;;;;3.97;2.03;;;22.80;99.90;;;;;;5051787;28;20473;-82
2022/09/09 08:51:30;;;;;;;5.22;2.78;;;22.80;99.90;;;;;;5061140;28;20074;-81
2022/09/09 08:54:01;;;;;;;7.85;2.33;;;22.50;99.90;;;;;;5060386;28;20039;-80
2022/09/09 08:56:31;;;;;;;8.30;2.75;;;22.60;99.90;;;;;;5060814;28;20098;-81
2022/09/09 08:59:01;;;;;;;4.95;2.25;;;22.60;99.90;;;;;;5060826;28;20020;-80
2022/09/09 09:01:55;;;;;;;3.78;2.50;;;22.70;99.90;;;;;;5078484;28;20115;-82
2022/09/09 09:04:28;;;;;;;8.18;2.17;;;22.70;99.90;;;;;;5061034;28;20500;-80
2022/09/09 09:07:01;;;;;;;7.65;2.67;;;22.70;99.90;;;;;;5059482;28;20029;-81
2022/09/09 09:09:43;;;;;;;4.15;1.75;;;22.90;99.90;;;;;;5058696;28;20086;-81
2022/09/09 09:12:21;;;;;;;4.32;1.63;;;23.10;99.90;;;;;;5059994;28;20093;-82
2022/09/09 09:14:48;;;;;;;3.90;1.50;;;23.80;99.90;;;;;;5042949;28;20039;-81
2022/09/09 09:17:23;;;;;;;3.97;1.40;;;25.00;99.90;;;;;;5054793;28;20433;-84
2022/09/09 09:19:49;;;;;;;6.22;1.20;;;25.80;99.90;;;;;;5042527;28;20025;-81
2022/09/09 09:22:15;;;;;;;2.67;1.13;;;26.70;99.90;;;;;;5051309;28;20054;-81
2022/09/09 09:24:52;;;;;;;6.45;1.23;;;27.40;98.20;;;;;;5075528;28;20016;-80
2022/09/09 09:27:31;;;;;;;4.25;1.20;;;27.80;97.90;;;;;;5054270;28;20048;-79
2022/09/09 09:30:00;;;;;;;3.63;1.05;;;28.20;97.10;;;;;;5065875;28;20032;-80
2022/09/09 09:32:33;;;;;;;3.83;1.08;;;29.20;95.50;;;;;;5055448;28;20028;-79
2022/09/09 09:35:00;;;;;;;1.98;1.17;;;29.80;92.50;;;;;;5048236;28;20029;-84
2022/09/09 09:37:30;;;;;;;2.35;1.10;;;30.40;91.00;;;;;;5049771;28;20542;-80
2022/09/09 09:40:11;;;;;;;2.35;1.05;;;31.60;88.40;;;;;;5052001;28;20028;-81
2022/09/09 09:42:47;;;;;;;1.52;1.00;;;33.00;82.80;;;;;;5069407;28;20051;-80
2022/09/09 09:45:48;;;;;;;4.72;1.63;;;33.70;79.10;;;;;;5085998;28;20051;-80
2022/09/09 09:48:15;;;;;;;1.35;0.90;;;33.00;79.80;;;;;;4976623;28;20064;-82
2022/09/09 09:51:01;;;;;;;1.77;0.93;;;33.90;77.60;;;;;;5059118;28;20037;-81
2022/09/09 09:53:33;;;;;;;2.92;0.95;;;34.70;75.20;;;;;;5082849;28;20054;-81
2022/09/09 09:56:06;;;;;;;1.67;0.93;;;34.40;74.20;;;;;;5079627;28;20040;-82
2022/09/09 09:58:49;;;;;;;3.05;0.88;;;34.00;74.20;;;;;;5073642;28;20096;-83
2022/09/09 10:01:27;;;;;;;4.38;0.90;;;33.60;74.70;;;;;;5075752;28;20029;-81
2022/09/09 10:04:19;;;;;;;4.63;1.00;;;33.60;74.70;;;;;;5095454;28;20028;-81
2022/09/09 10:06:46;;;;;;;4.88;0.93;;;32.80;75.30;;;;;;5084148;28;20034;-81
2022/09/09 10:09:27;;;;;;;5.28;0.80;;;31.90;75.20;;;;;;5101032;28;20023;-80
2022/09/09 10:12:00;;;;;;;2.00;1.00;;;31.30;75.20;;;;;;5101102;28;20044;-80
2022/09/09 10:15:05;;;;;;;1.52;0.93;;;31.20;75.20;;;;;;5100639;28;20101;-80
2022/09/09 10:18:09;;;;;;;1.25;0.60;;;30.70;76.10;;;;;;5100377;28;20044;-80
2022/09/09 10:20:48;;;;;;;1.50;0.90;;;30.30;75.80;;;;;;5100498;28;20033;-80
2022/09/09 10:23:48;;;;;;;5.10;0.70;;;30.10;77.40;;;;;;5090050;28;20035;-82
2022/09/09 10:26:46;;;;;;;7.15;3.15;;;29.80;78.60;;;;;;5085866;28;20127;-81
2022/09/09 10:29:46;;;;;;;5.03;1.15;;;31.10;77.50;;;;;;5016285;28;20084;-82
2022/09/09 10:32:38;;;;;;;2.83;0.90;;;34.00;74.00;;;;;;5078846;28;20108;-81
2022/09/09 10:35:13;;;;;;;1.52;0.80;;;35.50;69.90;;;;;;5097569;28;20052;-80
2022/09/09 10:38:16;;;;;;;1.35;0.85;;;34.70;70.60;;;;;;5095676;28;20028;-81
2022/09/09 10:40:56;;;;;;;8.23;2.15;;;33.40;70.20;;;;;;5095007;28;20024;-81
2022/09/09 10:43:46;;;;;;;1.65;1.02;;;32.40;73.30;;;;;;5078066;28;20024;-79
2022/09/09 10:46:50;;;;;;;5.88;1.08;;;31.50;75.00;;;;;;5078790;28;20036;-80
2022/09/09 10:49:43;;;;;;;3.72;1.05;;;30.80;76.10;;;;;;5096857;28;20036;-82
2022/09/09 10:52:40;;;;;;;1.08;0.90;;;30.50;76.40;;;;;;5096238;28;20115;-79
2022/09/09 10:55:12;;;;;;;2.08;1.00;;;30.30;76.00;;;;;;5099343;28;20044;-80
2022/09/09 10:57:52;;;;;;;2.25;1.25;;;30.20;77.20;;;;;;5099585;28;20032;-81
2022/09/09 11:00:20;;;;;;;5.55;1.55;;;30.50;77.00;;;;;;5082209;28;20027;-80
2022/09/09 11:02:58;;;;;;;1.27;1.00;;;30.60;77.40;;;;;;5081463;28;20017;-80
2022/09/09 11:05:28;;;;;;;2.15;0.93;;;30.50;75.80;;;;;;5098098;28;20037;-81
2022/09/09 11:08:25;;;;;;;4.43;1.17;;;30.40;76.00;;;;;;5092997;28;20040;-82
2022/09/09 11:11:03;;;;;;;2.15;0.98;;;29.70;77.60;;;;;;5092654;28;20035;-80
2022/09/09 11:13:54;;;;;;;2.65;1.20;;;29.40;78.60;;;;;;5097699;28;20059;-82
2022/09/09 11:16:38;;;;;;;2.05;1.02;;;29.10;79.00;;;;;;5080244;22;20054;-83
2022/09/09 11:19:39;;;;;;;3.33;1.20;;;28.60;79.80;;;;;;5048589;28;20493;-85
2022/09/09 11:22:15;;;;;;;2.75;1.17;;;28.20;81.00;;;;;;5043283;28;20512;-85
2022/09/09 11:25:12;;;;;;;3.85;0.98;;;27.90;81.70;;;;;;5045570;28;20025;-86
2022/09/09 11:27:41;;;;;;;2.28;1.20;;;27.90;82.30;;;;;;5033010;28;20041;-85
2022/09/09 11:30:37;;;;;;;1.13;0.82;;;27.80;82.50;;;;;;5038363;28;20025;-85
2022/09/09 11:33:06;;;;;;;1.58;1.00;;;27.60;83.00;;;;;;5046548;28;20034;-84
2022/09/09 11:35:34;;;;;;;1.20;0.80;;;27.50;83.80;;;;;;5047861;28;20549;-83
2022/09/09 11:38:17;;;;;;;1.90;1.20;;;27.60;83.60;;;;;;5046097;28;20041;-85
2022/09/09 11:40:44;;;;;;;2.45;1.05;;;27.60;84.30;;;;;;5043871;28;20030;-85
2022/09/09 11:43:12;;;;;;;2.92;1.48;;;27.60;84.50;;;;;;5035597;28;20018;-85
2022/09/09 11:45:41;;;;;;;3.80;1.30;;;27.70;83.80;;;;;;5052790;28;20021;-86
2022/09/09 11:48:25;;;;;;;5.00;1.30;;;27.90;84.00;;;;;;5043370;28;20045;-83
2022/09/09 11:51:04;;;;;;;3.70;1.00;;;28.20;82.80;;;;;;5048310;28;20083;-84
2022/09/09 11:53:32;;;;;;;3.22;0.90;;;28.30;81.80;;;;;;5050846;28;20037;-83
2022/09/09 11:56:03;;;;;;;1.42;1.00;;;28.70;81.60;;;;;;5053203;28;20124;-84
2022/09/09 11:58:40;;;;;;;1.10;0.70;;;29.10;80.20;;;;;;5051345;28;20117;-85
2022/09/09 12:01:44;;;;;;;3.13;1.48;;;29.30;79.70;;;;;;5056467;28;20060;-83
2022/09/09 12:04:28;;;;;;;1.77;0.90;;;29.20;79.00;;;;;;5042321;28;20042;-84
2022/09/09 12:06:58;;;;;;;1.15;0.80;;;29.00;79.20;;;;;;5052147;28;20044;-85
2022/09/09 12:09:45;;;;;;;2.97;1.10;;;28.80;79.30;;;;;;5052123;28;20032;-85
2022/09/09 12:12:11;;;;;;;1.95;1.08;;;28.50;79.90;;;;;;5045889;28;20108;-85
2022/09/09 12:14:54;;;;;;;1.60;0.90;;;28.20;79.60;;;;;;5043413;28;20025;-84
2022/09/09 12:17:23;;;;;;;2.05;1.05;;;28.10;80.30;;;;;;5043276;28;20033;-84
2022/09/09 12:20:35;;;;;;;5.15;1.52;;;28.40;79.70;;;;;;5044518;28;20040;-86
2022/09/09 12:23:09;;;;;;;4.10;1.00;;;28.80;79.50;;;;;;4945379;29;20054;-83
2022/09/09 12:25:35;;;;;;;;;;;29.60;77.80;;;;;;5024756;28;20087;-84
2022/09/09 12:28:37;;;;;;;1.77;0.80;;;30.60;76.40;;;;;;5047221;28;19964;-83
2022/09/09 12:31:23;;;;;;;1.60;1.05;;;31.40;74.70;;;;;;5046273;28;20121;-84
2022/09/09 12:33:49;;;;;;;4.40;1.25;;;32.30;72.20;;;;;;5045045;28;20115;-84
2022/09/09 12:36:23;;;;;;;2.35;1.20;;;32.90;70.90;;;;;;5047581;28;20056;-86
2022/09/09 12:38:51;;;;;;;3.53;1.00;;;32.50;71.10;;;;;;5047363;28;20029;-83
2022/09/09 12:41:26;;;;;;;2.72;1.27;;;32.30;70.90;;;;;;5025093;28;20072;-84
2022/09/09 12:44:07;;;;;;;3.33;1.13;;;31.90;71.40;;;;;;5030299;28;20117;-86
2022/09/09 12:46:41;;;;;;;1.58;1.10;;;31.20;71.80;;;;;;5059048;28;20035;-85
2022/09/09 12:49:34;;;;;;;1.08;0.80;;;30.80;71.90;;;;;;5038937;28;20104;-86
2022/09/09 12:52:26;;;;;;;4.70;1.33;;;30.30;71.90;;;;;;5046818;28;20092;-86
2022/09/09 12:54:53;;;;;;;2.50;1.08;;;29.50;73.20;;;;;;5024422;28;20034;-85
2022/09/09 12:57:21;;;;;;;4.10;1.13;;;28.80;75.00;;;;;;5043405;28;20021;-85
2022/09/09 12:59:50;;;;;;;2.22;0.90;;;28.50;75.40;;;;;;5040650;28;20040;-86
2022/09/09 13:02:22;;;;;;;5.35;1.20;;;28.40;75.30;;;;;;5031632;28;20026;-86
2022/09/09 13:04:50;;;;;;;1.98;1.08;;;28.10;75.90;;;;;;5029131;28;20121;-85
2022/09/09 13:07:20;;;;;;;3.13;1.17;;;27.90;76.60;;;;;;5023495;28;20033;-87
2022/09/09 13:09:48;;;;;;;2.25;1.00;;;27.40;77.10;;;;;;5023587;28;20037;-86
2022/09/09 13:12:20;;;;;;;1.83;1.10;;;27.20;76.90;;;;;;5017943;28;20026;-85
2022/09/09 13:14:50;;;;;;;3.85;1.13;;;26.90;77.60;;;;;;5039397;28;20033;-85
2022/09/09 13:17:25;;;;;;;1.25;0.98;;;26.70;78.10;;;;;;5040094;28;20029;-84
2022/09/09 13:19:52;;;;;;;2.13;1.17;;;26.60;79.20;;;;;;5038187;28;20021;-86
2022/09/09 13:22:33;;;;;;;2.25;1.42;;;26.40;79.00;;;;;;5044221;28;20438;-86